sensor_id;sensor_type;location;lat;lon;timestamp;temperature;humidity
5196;DHT22;2617;51.006;12.436;2023-11-22T00:01:13;0.30;99.90
5196;DHT22;2617;51.006;12.436;2023-11-22T00:06:14;0.30;99.90
5196;DHT22;2617;51.006;12.436;2023-11-22T00:11:16;0.30;99.90
5196;DHT22;2617;51.006;12.436;2023-11-22T00:16:18;0.30;99.90
5196;DHT22;2617;51.006;12.436;2023-11-22T00:21:20;0.30;99.90
5196;DHT22;2617;51.006;12.436;2023-11-22T00:26:21;0.30;99.90
5196;DHT22;2617;51.006;12.436;2023-11-22T00:31:24;0.30;99.90
5196;DHT22;2617;51.006;12.436;2023-11-22T00:36:25;0.30;99.90
5196;DHT22;2617;51.006;12.436;2023-11-22T00:41:31;0.40;99.90
5196;DHT22;2617;51.006;12.436;2023-11-22T00:46:33;0.30;99.90
5196;DHT22;2617;51.006;12.436;2023-11-22T00:51:34;0.30;99.90
5196;DHT22;2617;51.006;12.436;2023-11-22T00:56:36;0.30;99.90
5196;DHT22;2617;51.006;12.436;2023-11-22T01:01:38;0.30;99.90
5196;DHT22;2617;51.006;12.436;2023-11-22T01:06:40;0.20;99.90
5196;DHT22;2617;51.006;12.436;2023-11-22T01:11:43;0.20;99.90
5196;DHT22;2617;51.006;12.436;2023-11-22T01:16:44;0.10;99.90
5196;DHT22;2617;51.006;12.436;2023-11-22T01:21:47;0.10;99.90
5196;DHT22;2617;51.006;12.436;2023-11-22T01:26:49;0.10;99.90
5196;DHT22;2617;51.006;12.436;2023-11-22T01:31:51;0.10;99.90
5196;DHT22;2617;51.006;12.436;2023-11-22T01:36:53;0.10;99.90
5196;DHT22;2617;51.006;12.436;2023-11-22T01:41:55;0.00;99.90
5196;DHT22;2617;51.006;12.436;2023-11-22T01:46:57;0.00;99.90
5196;DHT22;2617;51.006;12.436;2023-11-22T01:51:58;0.00;99.90
5196;DHT22;2617;51.006;12.436;2023-11-22T01:57:00;0.10;99.90
5196;DHT22;2617;51.006;12.436;2023-11-22T02:02:03;0.00;99.90
5196;DHT22;2617;51.006;12.436;2023-11-22T02:07:05;0.00;99.90
5196;DHT22;2617;51.006;12.436;2023-11-22T02:12:07;-0.10;99.90
5196;DHT22;2617;51.006;12.436;2023-11-22T02:17:09;-0.10;99.90
5196;DHT22;2617;51.006;12.436;2023-11-22T02:22:12;-0.10;99.90
5196;DHT22;2617;51.006;12.436;2023-11-22T02:27:13;-0.10;99.90
5196;DHT22;2617;51.006;12.436;2023-11-22T02:32:15;-0.10;99.90
5196;DHT22;2617;51.006;12.436;2023-11-22T02:37:17;-0.10;99.90
5196;DHT22;2617;51.006;12.436;2023-11-22T02:42:19;-0.10;99.90
5196;DHT22;2617;51.006;12.436;2023-11-22T02:47:20;-0.20;99.90
5196;DHT22;2617;51.006;12.436;2023-11-22T02:52:22;-0.20;99.90
5196;DHT22;2617;51.006;12.436;2023-11-22T02:57:25;-0.20;99.90
5196;DHT22;2617;51.006;12.436;2023-11-22T03:02:27;-0.20;99.90
5196;DHT22;2617;51.006;12.436;2023-11-22T03:07:29;-0.20;99.90
5196;DHT22;2617;51.006;12.436;2023-11-22T03:12:30;-0.20;99.90
5196;DHT22;2617;51.006;12.436;2023-11-22T03:17:32;-0.20;99.90
5196;DHT22;2617;51.006;12.436;2023-11-22T03:22:35;-0.20;99.90
5196;DHT22;2617;51.006;12.436;2023-11-22T03:27:37;-0.30;99.90
5196;DHT22;2617;51.006;12.436;2023-11-22T03:32:39;-0.30;99.90
5196;DHT22;2617;51.006;12.436;2023-11-22T03:37:40;-0.30;99.90
5196;DHT22;2617;51.006;12.436;2023-11-22T03:42:43;-0.30;99.90
5196;DHT22;2617;51.006;12.436;2023-11-22T03:47:44;-0.20;99.90
5196;DHT22;2617;51.006;12.436;2023-11-22T03:52:47;-0.40;99.90
5196;DHT22;2617;51.006;12.436;2023-11-22T03:57:48;-0.40;99.90
5196;DHT22;2617;51.006;12.436;2023-11-22T04:02:50;-0.50;99.90
5196;DHT22;2617;51.006;12.436;2023-11-22T04:07:53;-0.70;99.90
5196;DHT22;2617;51.006;12.436;2023-11-22T04:12:54;-0.70;99.90
5196;DHT22;2617;51.006;12.436;2023-11-22T04:17:56;-0.70;99.90
5196;DHT22;2617;51.006;12.436;2023-11-22T04:22:58;-0.80;99.90
5196;DHT22;2617;51.006;12.436;2023-11-22T04:27:59;-0.90;99.90
5196;DHT22;2617;51.006;12.436;2023-11-22T04:33:01;-0.90;99.90
5196;DHT22;2617;51.006;12.436;2023-11-22T04:38:03;-1.00;99.90
5196;DHT22;2617;51.006;12.436;2023-11-22T04:43:05;-1.10;99.90
5196;DHT22;2617;51.006;12.436;2023-11-22T04:48:06;-1.20;99.90
5196;DHT22;2617;51.006;12.436;2023-11-22T04:53:10;-1.30;99.90
5196;DHT22;2617;51.006;12.436;2023-11-22T04:58:12;-1.40;99.90
5196;DHT22;2617;51.006;12.436;2023-11-22T05:03:14;-1.50;99.90
5196;DHT22;2617;51.006;12.436;2023-11-22T05:08:16;-1.40;99.90
5196;DHT22;2617;51.006;12.436;2023-11-22T05:13:18;-1.50;99.90
5196;DHT22;2617;51.006;12.436;2023-11-22T05:18:20;-1.40;99.90
5196;DHT22;2617;51.006;12.436;2023-11-22T05:23:22;-1.40;99.90
5196;DHT22;2617;51.006;12.436;2023-11-22T05:28:23;-1.30;99.90
5196;DHT22;2617;51.006;12.436;2023-11-22T05:33:25;-1.30;99.90
5196;DHT22;2617;51.006;12.436;2023-11-22T05:38:27;-1.30;99.90
5196;DHT22;2617;51.006;12.436;2023-11-22T05:43:29;-1.30;99.90
5196;DHT22;2617;51.006;12.436;2023-11-22T05:48:31;-1.30;99.90
5196;DHT22;2617;51.006;12.436;2023-11-22T05:53:33;-1.20;99.90
5196;DHT22;2617;51.006;12.436;2023-11-22T05:58:35;-1.20;99.90
5196;DHT22;2617;51.006;12.436;2023-11-22T06:03:39;-1.20;99.90
5196;DHT22;2617;51.006;12.436;2023-11-22T06:08:41;-1.20;99.90
5196;DHT22;2617;51.006;12.436;2023-11-22T06:13:43;-1.20;99.90
5196;DHT22;2617;51.006;12.436;2023-11-22T06:18:45;-1.20;99.90
5196;DHT22;2617;51.006;12.436;2023-11-22T06:23:47;-1.20;99.90
5196;DHT22;2617;51.006;12.436;2023-11-22T06:28:49;-1.10;99.90
5196;DHT22;2617;51.006;12.436;2023-11-22T06:33:51;-1.10;99.90
5196;DHT22;2617;51.006;12.436;2023-11-22T06:38:53;-1.10;99.90
5196;DHT22;2617;51.006;12.436;2023-11-22T06:43:55;-1.10;99.90
5196;DHT22;2617;51.006;12.436;2023-11-22T06:48:57;-1.20;99.90
5196;DHT22;2617;51.006;12.436;2023-11-22T06:53:58;-1.20;99.90
5196;DHT22;2617;51.006;12.436;2023-11-22T06:59:01;-1.20;99.90
5196;DHT22;2617;51.006;12.436;2023-11-22T07:04:03;-1.20;99.90
5196;DHT22;2617;51.006;12.436;2023-11-22T07:09:05;-1.20;99.90
5196;DHT22;2617;51.006;12.436;2023-11-22T07:14:06;-1.20;99.90
5196;DHT22;2617;51.006;12.436;2023-11-22T07:19:08;-1.20;99.90
5196;DHT22;2617;51.006;12.436;2023-11-22T07:24:10;-1.20;99.90
5196;DHT22;2617;51.006;12.436;2023-11-22T07:29:12;-1.20;99.90
5196;DHT22;2617;51.006;12.436;2023-11-22T07:34:14;-1.20;99.90
5196;DHT22;2617;51.006;12.436;2023-11-22T07:39:16;-1.10;99.90
5196;DHT22;2617;51.006;12.436;2023-11-22T07:44:18;-1.20;99.90
5196;DHT22;2617;51.006;12.436;2023-11-22T07:49:20;-1.20;99.90
5196;DHT22;2617;51.006;12.436;2023-11-22T07:54:24;-1.10;99.90
5196;DHT22;2617;51.006;12.436;2023-11-22T07:59:26;-1.20;99.90
5196;DHT22;2617;51.006;12.436;2023-11-22T08:04:28;-1.20;99.90
5196;DHT22;2617;51.006;12.436;2023-11-22T08:09:30;-1.20;99.90
5196;DHT22;2617;51.006;12.436;2023-11-22T08:14:32;-1.20;99.90
5196;DHT22;2617;51.006;12.436;2023-11-22T08:19:34;-1.30;99.90
5196;DHT22;2617;51.006;12.436;2023-11-22T08:24:35;-1.20;99.90
5196;DHT22;2617;51.006;12.436;2023-11-22T08:29:37;-1.20;99.90
5196;DHT22;2617;51.006;12.436;2023-11-22T08:34:40;-1.30;99.90
5196;DHT22;2617;51.006;12.436;2023-11-22T08:39:41;-1.30;99.90
5196;DHT22;2617;51.006;12.436;2023-11-22T08:44:43;-1.30;99.90
5196;DHT22;2617;51.006;12.436;2023-11-22T08:49:46;-1.30;99.90
5196;DHT22;2617;51.006;12.436;2023-11-22T08:54:47;-1.30;99.90
5196;DHT22;2617;51.006;12.436;2023-11-22T08:59:49;-1.30;99.90
5196;DHT22;2617;51.006;12.436;2023-11-22T09:04:51;-1.30;99.90
5196;DHT22;2617;51.006;12.436;2023-11-22T09:09:52;-1.30;99.90
5196;DHT22;2617;51.006;12.436;2023-11-22T09:14:55;-1.30;99.90
5196;DHT22;2617;51.006;12.436;2023-11-22T09:19:57;-1.30;99.90
5196;DHT22;2617;51.006;12.436;2023-11-22T09:24:59;-1.20;99.90
5196;DHT22;2617;51.006;12.436;2023-11-22T09:30:01;-1.20;99.90
5196;DHT22;2617;51.006;12.436;2023-11-22T09:35:03;-1.10;99.90
5196;DHT22;2617;51.006;12.436;2023-11-22T09:40:06;-1.00;99.90
5196;DHT22;2617;51.006;12.436;2023-11-22T09:45:09;-0.90;99.90
5196;DHT22;2617;51.006;12.436;2023-11-22T09:50:12;-0.80;99.90
5196;DHT22;2617;51.006;12.436;2023-11-22T09:55:12;-0.80;99.90
5196;DHT22;2617;51.006;12.436;2023-11-22T10:00:14;-0.80;99.90
5196;DHT22;2617;51.006;12.436;2023-11-22T10:05:16;-0.70;99.90
5196;DHT22;2617;51.006;12.436;2023-11-22T10:10:18;-0.70;99.90
5196;DHT22;2617;51.006;12.436;2023-11-22T10:15:21;-0.60;99.90
5196;DHT22;2617;51.006;12.436;2023-11-22T10:20:25;-0.40;99.90
5196;DHT22;2617;51.006;12.436;2023-11-22T10:25:28;-0.60;99.90
5196;DHT22;2617;51.006;12.436;2023-11-22T10:30:29;-0.60;99.90
5196;DHT22;2617;51.006;12.436;2023-11-22T10:35:31;-0.60;99.90
5196;DHT22;2617;51.006;12.436;2023-11-22T10:40:32;-0.60;99.90
5196;DHT22;2617;51.006;12.436;2023-11-22T10:45:35;-0.50;99.90
5196;DHT22;2617;51.006;12.436;2023-11-22T10:50:37;-0.60;99.90
5196;DHT22;2617;51.006;12.436;2023-11-22T10:55:41;-0.40;99.90
5196;DHT22;2617;51.006;12.436;2023-11-22T11:00:42;-0.40;99.90
5196;DHT22;2617;51.006;12.436;2023-11-22T11:05:47;-0.20;99.90
5196;DHT22;2617;51.006;12.436;2023-11-22T11:10:47;-0.20;99.90
5196;DHT22;2617;51.006;12.436;2023-11-22T11:15:48;0.00;99.90
5196;DHT22;2617;51.006;12.436;2023-11-22T11:20:50;0.00;99.90
5196;DHT22;2617;51.006;12.436;2023-11-22T11:25:53;0.00;99.90
5196;DHT22;2617;51.006;12.436;2023-11-22T11:30:54;0.10;99.90
5196;DHT22;2617;51.006;12.436;2023-11-22T11:35:56;0.20;99.90
5196;DHT22;2617;51.006;12.436;2023-11-22T11:41:05;0.10;99.90
5196;DHT22;2617;51.006;12.436;2023-11-22T11:46:00;0.20;99.90
5196;DHT22;2617;51.006;12.436;2023-11-22T11:51:02;0.20;99.90
5196;DHT22;2617;51.006;12.436;2023-11-22T11:56:05;0.50;99.90
5196;DHT22;2617;51.006;12.436;2023-11-22T12:01:08;0.70;99.90
5196;DHT22;2617;51.006;12.436;2023-11-22T12:06:10;0.70;99.90
5196;DHT22;2617;51.006;12.436;2023-11-22T12:11:11;0.80;99.90
5196;DHT22;2617;51.006;12.436;2023-11-22T12:16:14;0.80;99.90
5196;DHT22;2617;51.006;12.436;2023-11-22T12:21:16;0.70;99.90
5196;DHT22;2617;51.006;12.436;2023-11-22T12:26:19;0.80;99.90
5196;DHT22;2617;51.006;12.436;2023-11-22T12:31:19;0.70;99.90
5196;DHT22;2617;51.006;12.436;2023-11-22T12:36:21;0.70;99.90
5196;DHT22;2617;51.006;12.436;2023-11-22T12:41:23;0.70;99.90
5196;DHT22;2617;51.006;12.436;2023-11-22T12:46:24;0.80;99.90
5196;DHT22;2617;51.006;12.436;2023-11-22T12:51:26;0.90;99.90
5196;DHT22;2617;51.006;12.436;2023-11-22T12:56:28;0.90;99.90
5196;DHT22;2617;51.006;12.436;2023-11-22T13:01:30;0.90;99.90
5196;DHT22;2617;51.006;12.436;2023-11-22T13:06:31;0.90;99.90
5196;DHT22;2617;51.006;12.436;2023-11-22T13:11:33;0.80;99.90
5196;DHT22;2617;51.006;12.436;2023-11-22T13:16:35;0.70;99.90
5196;DHT22;2617;51.006;12.436;2023-11-22T13:21:36;0.60;99.90
5196;DHT22;2617;51.006;12.436;2023-11-22T13:26:38;0.50;99.90
5196;DHT22;2617;51.006;12.436;2023-11-22T13:31:40;0.30;99.90
5196;DHT22;2617;51.006;12.436;2023-11-22T13:36:42;0.20;99.90
5196;DHT22;2617;51.006;12.436;2023-11-22T13:41:44;0.20;99.90
5196;DHT22;2617;51.006;12.436;2023-11-22T13:46:46;0.20;99.90
5196;DHT22;2617;51.006;12.436;2023-11-22T13:57:08;0.10;99.90
5196;DHT22;2617;51.006;12.436;2023-11-22T14:02:09;0.10;99.90
5196;DHT22;2617;51.006;12.436;2023-11-22T14:07:11;0.10;99.90
5196;DHT22;2617;51.006;12.436;2023-11-22T14:12:13;0.10;99.90
5196;DHT22;2617;51.006;12.436;2023-11-22T14:17:16;0.10;99.90
5196;DHT22;2617;51.006;12.436;2023-11-22T14:22:18;0.00;99.90
5196;DHT22;2617;51.006;12.436;2023-11-22T14:27:20;0.00;99.90
5196;DHT22;2617;51.006;12.436;2023-11-22T14:32:22;0.00;99.90
5196;DHT22;2617;51.006;12.436;2023-11-22T14:37:23;0.00;99.90
5196;DHT22;2617;51.006;12.436;2023-11-22T14:42:25;0.00;99.90
5196;DHT22;2617;51.006;12.436;2023-11-22T14:47:27;0.00;99.90
5196;DHT22;2617;51.006;12.436;2023-11-22T14:52:29;-0.10;99.90
5196;DHT22;2617;51.006;12.436;2023-11-22T14:57:31;-0.10;99.90
5196;DHT22;2617;51.006;12.436;2023-11-22T15:02:33;-0.10;99.90
5196;DHT22;2617;51.006;12.436;2023-11-22T15:07:36;-0.20;99.90
5196;DHT22;2617;51.006;12.436;2023-11-22T15:12:37;-0.20;99.90
5196;DHT22;2617;51.006;12.436;2023-11-22T15:17:39;-0.20;99.90
5196;DHT22;2617;51.006;12.436;2023-11-22T15:22:41;-0.20;99.90
5196;DHT22;2617;51.006;12.436;2023-11-22T15:27:42;-0.20;99.90
5196;DHT22;2617;51.006;12.436;2023-11-22T15:32:44;-0.20;99.90
5196;DHT22;2617;51.006;12.436;2023-11-22T15:37:46;-0.20;99.90
5196;DHT22;2617;51.006;12.436;2023-11-22T15:42:47;-0.20;99.90
5196;DHT22;2617;51.006;12.436;2023-11-22T15:47:49;-0.20;99.90
5196;DHT22;2617;51.006;12.436;2023-11-22T15:52:51;-0.20;99.90
5196;DHT22;2617;51.006;12.436;2023-11-22T15:57:54;-0.20;99.90
5196;DHT22;2617;51.006;12.436;2023-11-22T16:02:55;-0.20;99.90
5196;DHT22;2617;51.006;12.436;2023-11-22T16:07:57;-0.20;99.90
5196;DHT22;2617;51.006;12.436;2023-11-22T16:12:59;-0.20;99.90
5196;DHT22;2617;51.006;12.436;2023-11-22T16:18:00;-0.30;99.90
5196;DHT22;2617;51.006;12.436;2023-11-22T16:23:02;-0.20;99.90
5196;DHT22;2617;51.006;12.436;2023-11-22T16:28:04;-0.30;99.90
5196;DHT22;2617;51.006;12.436;2023-11-22T16:33:06;-0.30;99.90
5196;DHT22;2617;51.006;12.436;2023-11-22T16:38:08;-0.30;99.90
5196;DHT22;2617;51.006;12.436;2023-11-22T16:43:10;-0.30;99.90
5196;DHT22;2617;51.006;12.436;2023-11-22T16:48:12;-0.30;99.90
5196;DHT22;2617;51.006;12.436;2023-11-22T16:53:14;-0.30;99.90
5196;DHT22;2617;51.006;12.436;2023-11-22T16:58:17;-0.30;99.90
5196;DHT22;2617;51.006;12.436;2023-11-22T17:03:18;-0.30;99.90
5196;DHT22;2617;51.006;12.436;2023-11-22T17:08:21;-0.20;99.90
5196;DHT22;2617;51.006;12.436;2023-11-22T17:13:22;-0.20;99.90
5196;DHT22;2617;51.006;12.436;2023-11-22T17:18:25;-0.10;99.90
5196;DHT22;2617;51.006;12.436;2023-11-22T17:23:26;-0.20;99.90
5196;DHT22;2617;51.006;12.436;2023-11-22T17:28:29;-0.10;99.90
5196;DHT22;2617;51.006;12.436;2023-11-22T17:33:30;-0.10;99.90
5196;DHT22;2617;51.006;12.436;2023-11-22T17:38:33;-0.20;99.90
5196;DHT22;2617;51.006;12.436;2023-11-22T17:43:35;-0.20;99.90
5196;DHT22;2617;51.006;12.436;2023-11-22T17:48:36;-0.20;99.90
5196;DHT22;2617;51.006;12.436;2023-11-22T17:53:38;-0.20;99.90
5196;DHT22;2617;51.006;12.436;2023-11-22T17:58:40;-0.30;99.90
5196;DHT22;2617;51.006;12.436;2023-11-22T18:03:42;-0.30;99.90
5196;DHT22;2617;51.006;12.436;2023-11-22T18:08:43;-0.30;99.90
5196;DHT22;2617;51.006;12.436;2023-11-22T18:13:45;-0.30;99.90
5196;DHT22;2617;51.006;12.436;2023-11-22T18:18:47;-0.30;99.90
5196;DHT22;2617;51.006;12.436;2023-11-22T18:23:48;-0.30;99.90
5196;DHT22;2617;51.006;12.436;2023-11-22T18:28:50;-0.40;99.90
5196;DHT22;2617;51.006;12.436;2023-11-22T18:33:52;-0.40;99.90
5196;DHT22;2617;51.006;12.436;2023-11-22T18:38:53;-0.40;99.90
5196;DHT22;2617;51.006;12.436;2023-11-22T18:43:56;-0.30;99.90
5196;DHT22;2617;51.006;12.436;2023-11-22T18:48:58;-0.30;99.90
5196;DHT22;2617;51.006;12.436;2023-11-22T18:53:59;-0.30;99.90
5196;DHT22;2617;51.006;12.436;2023-11-22T18:59:01;-0.30;99.90
5196;DHT22;2617;51.006;12.436;2023-11-22T19:04:04;-0.40;99.90
5196;DHT22;2617;51.006;12.436;2023-11-22T19:09:06;-0.40;99.90
5196;DHT22;2617;51.006;12.436;2023-11-22T19:14:08;-0.50;99.90
5196;DHT22;2617;51.006;12.436;2023-11-22T19:19:10;-0.50;99.90
5196;DHT22;2617;51.006;12.436;2023-11-22T19:24:12;-0.50;99.90
5196;DHT22;2617;51.006;12.436;2023-11-22T19:29:13;-0.50;99.90
5196;DHT22;2617;51.006;12.436;2023-11-22T19:34:15;-0.60;99.90
5196;DHT22;2617;51.006;12.436;2023-11-22T19:39:17;-0.60;99.90
5196;DHT22;2617;51.006;12.436;2023-11-22T19:44:18;-0.60;99.90
5196;DHT22;2617;51.006;12.436;2023-11-22T19:49:20;-0.60;99.90
5196;DHT22;2617;51.006;12.436;2023-11-22T19:54:22;-0.60;99.90
5196;DHT22;2617;51.006;12.436;2023-11-22T19:59:23;-0.60;99.90
5196;DHT22;2617;51.006;12.436;2023-11-22T20:04:26;-0.60;99.90
5196;DHT22;2617;51.006;12.436;2023-11-22T20:09:28;-0.60;99.90
5196;DHT22;2617;51.006;12.436;2023-11-22T20:14:30;-0.50;99.90
5196;DHT22;2617;51.006;12.436;2023-11-22T20:19:32;-0.50;99.90
5196;DHT22;2617;51.006;12.436;2023-11-22T20:24:33;-0.50;99.90
5196;DHT22;2617;51.006;12.436;2023-11-22T20:29:37;-0.50;99.90
5196;DHT22;2617;51.006;12.436;2023-11-22T20:34:38;-0.40;99.90
5196;DHT22;2617;51.006;12.436;2023-11-22T20:39:43;-0.40;99.90
5196;DHT22;2617;51.006;12.436;2023-11-22T20:44:45;-0.40;99.90
5196;DHT22;2617;51.006;12.436;2023-11-22T20:49:46;-0.40;99.90
5196;DHT22;2617;51.006;12.436;2023-11-22T20:54:48;-0.30;99.90
5196;DHT22;2617;51.006;12.436;2023-11-22T20:59:50;-0.20;99.90
5196;DHT22;2617;51.006;12.436;2023-11-22T21:04:52;-0.20;99.90
5196;DHT22;2617;51.006;12.436;2023-11-22T21:09:55;-0.10;99.90
5196;DHT22;2617;51.006;12.436;2023-11-22T21:14:58;-0.10;99.90
5196;DHT22;2617;51.006;12.436;2023-11-22T21:20:00;0.00;99.90
5196;DHT22;2617;51.006;12.436;2023-11-22T21:25:02;0.00;99.90
5196;DHT22;2617;51.006;12.436;2023-11-22T21:30:05;0.10;99.90
5196;DHT22;2617;51.006;12.436;2023-11-22T21:35:07;0.00;99.90
5196;DHT22;2617;51.006;12.436;2023-11-22T21:40:09;0.10;99.90
5196;DHT22;2617;51.006;12.436;2023-11-22T21:45:12;0.10;99.90
5196;DHT22;2617;51.006;12.436;2023-11-22T21:50:14;0.10;99.90
5196;DHT22;2617;51.006;12.436;2023-11-22T21:55:16;0.10;99.90
5196;DHT22;2617;51.006;12.436;2023-11-22T22:05:31;0.20;99.90
5196;DHT22;2617;51.006;12.436;2023-11-22T22:10:34;0.20;99.90
5196;DHT22;2617;51.006;12.436;2023-11-22T22:15:36;0.20;99.90
5196;DHT22;2617;51.006;12.436;2023-11-22T22:20:39;0.20;99.90
5196;DHT22;2617;51.006;12.436;2023-11-22T22:25:41;0.30;99.90
5196;DHT22;2617;51.006;12.436;2023-11-22T22:30:43;0.30;99.90
5196;DHT22;2617;51.006;12.436;2023-11-22T22:35:46;0.40;99.90
5196;DHT22;2617;51.006;12.436;2023-11-22T22:40:48;0.40;99.90
5196;DHT22;2617;51.006;12.436;2023-11-22T22:45:51;0.40;99.90
5196;DHT22;2617;51.006;12.436;2023-11-22T22:50:53;0.50;99.90
5196;DHT22;2617;51.006;12.436;2023-11-22T22:55:55;0.50;99.90
5196;DHT22;2617;51.006;12.436;2023-11-22T23:00:58;0.50;99.90
5196;DHT22;2617;51.006;12.436;2023-11-22T23:06:01;0.50;99.90
5196;DHT22;2617;51.006;12.436;2023-11-22T23:11:05;0.50;99.90
5196;DHT22;2617;51.006;12.436;2023-11-22T23:16:07;0.50;99.90
5196;DHT22;2617;51.006;12.436;2023-11-22T23:21:10;0.50;99.90
5196;DHT22;2617;51.006;12.436;2023-11-22T23:26:12;0.50;99.90
5196;DHT22;2617;51.006;12.436;2023-11-22T23:31:15;0.60;99.90
5196;DHT22;2617;51.006;12.436;2023-11-22T23:36:18;0.60;99.90
5196;DHT22;2617;51.006;12.436;2023-11-22T23:41:21;0.60;99.90
5196;DHT22;2617;51.006;12.436;2023-11-22T23:46:23;0.70;99.90
5196;DHT22;2617;51.006;12.436;2023-11-22T23:51:25;0.70;99.90
5196;DHT22;2617;51.006;12.436;2023-11-22T23:56:28;0.80;99.90
